sensor_id;sensor_type;location;lat;lon;timestamp;pressure;altitude;pressure_sealevel;temperature;humidity
14242;BME280;7205;50.864;12.766;2023-12-20T20:25:27;96882.84;;;7.68;88.83
14242;BME280;7205;50.864;12.766;2023-12-20T20:27:54;96869.09;;;7.35;90.09
14242;BME280;7205;50.864;12.766;2023-12-20T20:30:21;96887.66;;;7.11;92.29
14242;BME280;7205;50.864;12.766;2023-12-20T20:32:48;96874.28;;;6.90;93.86
14242;BME280;7205;50.864;12.766;2023-12-20T20:35:18;96879.41;;;6.84;95.78
14242;BME280;7205;50.864;12.766;2023-12-20T20:37:45;96886.16;;;6.70;97.33
14242;BME280;7205;50.864;12.766;2023-12-20T20:42:49;96878.03;;;6.57;99.54
14242;BME280;7205;50.864;12.766;2023-12-20T20:45:16;96873.97;;;6.55;100.00
14242;BME280;7205;50.864;12.766;2023-12-20T20:47:43;96862.81;;;6.53;100.00
14242;BME280;7205;50.864;12.766;2023-12-20T20:50:10;96876.25;;;6.50;100.00
14242;BME280;7205;50.864;12.766;2023-12-20T20:52:38;96864.59;;;6.52;100.00
14242;BME280;7205;50.864;12.766;2023-12-20T20:55:05;96872.00;;;6.41;100.00
14242;BME280;7205;50.864;12.766;2023-12-20T20:57:36;96876.09;;;6.43;100.00
14242;BME280;7205;50.864;12.766;2023-12-20T21:00:06;96864.84;;;6.34;100.00
14242;BME280;7205;50.864;12.766;2023-12-20T21:02:33;96867.47;;;6.34;100.00
14242;BME280;7205;50.864;12.766;2023-12-20T21:05:00;96872.34;;;6.38;100.00
14242;BME280;7205;50.864;12.766;2023-12-20T21:07:31;96861.56;;;6.32;100.00
14242;BME280;7205;50.864;12.766;2023-12-20T21:10:01;96858.78;;;6.34;100.00
14242;BME280;7205;50.864;12.766;2023-12-20T21:12:28;96842.38;;;6.32;100.00
14242;BME280;7205;50.864;12.766;2023-12-20T21:14:58;96823.22;;;6.31;100.00
14242;BME280;7205;50.864;12.766;2023-12-20T21:18:05;96840.06;;;6.37;100.00
14242;BME280;7205;50.864;12.766;2023-12-20T21:20:32;96832.88;;;6.39;100.00
14242;BME280;7205;50.864;12.766;2023-12-20T21:23:01;96825.81;;;6.40;100.00
14242;BME280;7205;50.864;12.766;2023-12-20T21:25:29;96815.66;;;6.45;100.00
14242;BME280;7205;50.864;12.766;2023-12-20T21:27:56;96829.03;;;6.58;100.00
14242;BME280;7205;50.864;12.766;2023-12-20T21:30:23;96799.06;;;6.52;100.00
14242;BME280;7205;50.864;12.766;2023-12-20T21:32:53;96809.50;;;6.60;100.00
14242;BME280;7205;50.864;12.766;2023-12-20T21:35:24;96813.59;;;6.63;100.00
14242;BME280;7205;50.864;12.766;2023-12-20T21:37:50;96807.19;;;6.65;100.00
14242;BME280;7205;50.864;12.766;2023-12-20T21:40:17;96818.31;;;6.67;100.00
14242;BME280;7205;50.864;12.766;2023-12-20T21:42:44;96801.75;;;6.67;100.00
14242;BME280;7205;50.864;12.766;2023-12-20T21:45:15;96782.91;;;6.63;100.00
14242;BME280;7205;50.864;12.766;2023-12-20T21:47:42;96780.94;;;6.65;100.00
14242;BME280;7205;50.864;12.766;2023-12-20T21:50:09;96785.53;;;6.63;100.00
14242;BME280;7205;50.864;12.766;2023-12-20T21:52:38;96782.78;;;6.65;100.00
14242;BME280;7205;50.864;12.766;2023-12-20T21:55:07;96775.72;;;6.65;100.00
14242;BME280;7205;50.864;12.766;2023-12-20T21:57:34;96769.66;;;6.65;100.00
14242;BME280;7205;50.864;12.766;2023-12-20T22:03:46;96766.41;;;6.63;100.00
14242;BME280;7205;50.864;12.766;2023-12-20T22:06:13;96760.50;;;6.61;100.00
14242;BME280;7205;50.864;12.766;2023-12-20T22:08:41;96757.06;;;6.60;100.00
14242;BME280;7205;50.864;12.766;2023-12-20T22:11:08;96754.44;;;6.60;100.00
14242;BME280;7205;50.864;12.766;2023-12-20T22:13:35;96746.38;;;6.62;100.00
14242;BME280;7205;50.864;12.766;2023-12-20T22:16:04;96748.69;;;6.65;100.00
14242;BME280;7205;50.864;12.766;2023-12-20T22:18:34;96750.47;;;6.64;100.00
14242;BME280;7205;50.864;12.766;2023-12-20T22:21:01;96743.09;;;6.68;100.00
14242;BME280;7205;50.864;12.766;2023-12-20T22:23:29;96745.72;;;6.68;100.00
14242;BME280;7205;50.864;12.766;2023-12-20T22:25:57;96737.66;;;6.69;100.00
14242;BME280;7205;50.864;12.766;2023-12-20T22:28:24;96724.91;;;6.66;100.00
14242;BME280;7205;50.864;12.766;2023-12-20T22:30:51;96724.91;;;6.66;100.00
14242;BME280;7205;50.864;12.766;2023-12-20T22:33:17;96730.28;;;6.73;100.00
14242;BME280;7205;50.864;12.766;2023-12-20T22:35:44;96712.88;;;6.72;100.00
14242;BME280;7205;50.864;12.766;2023-12-20T22:38:13;96702.84;;;6.75;100.00
14242;BME280;7205;50.864;12.766;2023-12-20T22:40:40;96694.19;;;6.75;100.00
14242;BME280;7205;50.864;12.766;2023-12-20T22:43:08;96687.13;;;6.75;100.00
14242;BME280;7205;50.864;12.766;2023-12-20T22:45:35;96679.91;;;6.77;100.00
14242;BME280;7205;50.864;12.766;2023-12-20T22:48:06;96680.53;;;6.79;100.00
14242;BME280;7205;50.864;12.766;2023-12-20T22:50:36;96668.59;;;6.77;100.00
14242;BME280;7205;50.864;12.766;2023-12-20T22:53:03;96667.44;;;6.79;100.00
14242;BME280;7205;50.864;12.766;2023-12-20T22:55:30;96667.06;;;6.82;100.00
14242;BME280;7205;50.864;12.766;2023-12-20T22:57:57;96666.72;;;6.85;100.00
14242;BME280;7205;50.864;12.766;2023-12-20T23:00:26;96661.28;;;6.87;100.00
14242;BME280;7205;50.864;12.766;2023-12-20T23:09:51;96630.34;;;6.82;100.00
14242;BME280;7205;50.864;12.766;2023-12-20T23:12:18;96634.09;;;6.88;100.00
14242;BME280;7205;50.864;12.766;2023-12-20T23:14:45;96630.44;;;6.89;100.00
14242;BME280;7205;50.864;12.766;2023-12-20T23:17:21;96626.84;;;6.90;100.00
14242;BME280;7205;50.864;12.766;2023-12-20T23:20:49;96595.00;;;6.93;100.00
14242;BME280;7205;50.864;12.766;2023-12-20T23:23:39;96605.16;;;6.96;100.00
14242;BME280;7205;50.864;12.766;2023-12-20T23:26:46;96597.91;;;6.98;100.00
14242;BME280;7205;50.864;12.766;2023-12-20T23:30:06;96584.16;;;6.96;100.00
14242;BME280;7205;50.864;12.766;2023-12-20T23:33:28;96578.06;;;6.95;100.00
14242;BME280;7205;50.864;12.766;2023-12-20T23:36:19;96558.56;;;6.98;100.00
14242;BME280;7205;50.864;12.766;2023-12-20T23:42:35;96579.81;;;7.03;100.00
14242;BME280;7205;50.864;12.766;2023-12-20T23:47:43;96567.50;;;7.03;100.00
14242;BME280;7205;50.864;12.766;2023-12-20T23:50:17;96557.28;;;7.08;100.00
14242;BME280;7205;50.864;12.766;2023-12-20T23:52:44;96551.06;;;7.09;100.00
14242;BME280;7205;50.864;12.766;2023-12-20T23:55:12;96543.34;;;7.08;100.00
14242;BME280;7205;50.864;12.766;2023-12-20T23:57:40;96542.91;;;7.04;100.00
